Hartland Point — ZIQS6 — position and weather

sailwx.info

Track history (hours):
 
Tides and Currents Weather Stations Pressure Air Temp Water Temp Dewpoint Dewpoint Depression Visibility Wind Speed Wind Dir Waves Ship Positions

Hartland Point

Last reported at 2016-Jul-27 01:28 UTC. Time now 2016-Jul-27 05:48 UTC.
Position N 01°18' E 104°03'.

Length 193 m; draft 5.7 m.

Type: Ship. MMSI: 235505000.

Date/timePositionNaut miles runAvg speedWind from/ knotsBaromVisibWave heightAir tempDewpointWater temp
2016-Jul-27 01:28N 01°18' E 104°03'6 4.8
2016-Jul-27 00:19N 01°17' E 104°09'  
2016-Jul-22 01:18N 01°16' E 104°12'1216.5
2016-Jul-22 00:33N 01°14' E 103°60'1413.8
2016-Jul-21 23:33N 01°09' E 103°47'4212.1
2016-Jul-21 20:04N 01°24' E 103°08'812.5
2016-Jul-21 19:25N 01°29' E 103°01'1315.1
2016-Jul-21 18:33N 01°35' E 102°50'1616.2
2016-Jul-21 17:33N 01°43' E 102°35'1616.2
2016-Jul-21 16:33N 01°50' E 102°21'  
Track history (hours):
 
Tides and Currents Weather Stations Pressure Air Temp Water Temp Dewpoint Dewpoint Depression Visibility Wind Speed Wind Dir Waves Ship Positions

Hartland Point

Last reported at 2016-Jul-27 01:28 UTC. Time now 2016-Jul-27 05:48 UTC.
Position N 01°18' E 104°03'.

Length 193 m; draft 5.7 m.

Type: Ship. MMSI: 235505000.

Date/timePositionNaut miles runAvg speedWind from/ knotsBaromVisibWave heightAir tempDewpointWater temp
2016-Jul-27 01:28N 01°18' E 104°03'6 4.8
2016-Jul-27 00:19N 01°17' E 104°09'  
2016-Jul-22 01:18N 01°16' E 104°12'1216.5
2016-Jul-22 00:33N 01°14' E 103°60'1413.8
2016-Jul-21 23:33N 01°09' E 103°47'4212.1
2016-Jul-21 20:04N 01°24' E 103°08'812.5
2016-Jul-21 19:25N 01°29' E 103°01'1315.1
2016-Jul-21 18:33N 01°35' E 102°50'1616.2
2016-Jul-21 17:33N 01°43' E 102°35'1616.2
2016-Jul-21 16:33N 01°50' E 102°21'  

Dump ship's entire track history